Time;durP1;ratioP1;P1;durP2;ratioP2;P2;SDS_P1;SDS_P2;PMS_P1;PMS_P2;Temp;Humidity;BMP_temperature;BMP_pressure;BME280_temperature;BME280_humidity;BME280_pressure;Samples;Min_cycle;Max_cycle;Signal;HPM_P1;HPM_P2
2022/07/27 00:00:54;;;;;;;2.67;1.60;;;;;;;19.85;62.85;98089.34;5052401;28;20579;-78
2022/07/27 00:03:22;;;;;;;2.83;1.90;;;;;;;19.82;63.08;98099.56;5052234;28;20212;-81
2022/07/27 00:05:48;;;;;;;3.17;2.00;;;;;;;19.78;63.53;98091.03;5052573;28;20555;-82
2022/07/27 00:08:15;;;;;;;2.10;1.87;;;;;;;19.70;63.98;98098.19;5053201;28;20212;-82
2022/07/27 00:10:42;;;;;;;2.50;1.80;;;;;;;19.60;64.52;98090.28;5056305;28;20302;-81
2022/07/27 00:13:08;;;;;;;2.20;1.77;;;;;;;19.65;64.61;98098.69;5056339;28;20215;-80
2022/07/27 00:15:36;;;;;;;2.47;2.03;;;;;;;19.72;64.64;98098.88;5056013;28;20222;-79
2022/07/27 00:18:03;;;;;;;3.00;2.07;;;;;;;19.67;64.70;98087.78;5054310;28;20212;-78
2022/07/27 00:20:31;;;;;;;2.23;2.00;;;;;;;19.58;65.11;98086.91;5055865;28;20239;-80
2022/07/27 00:22:59;;;;;;;2.30;2.10;;;;;;;19.55;65.52;98089.09;5056131;28;20234;-79
2022/07/27 00:25:26;;;;;;;2.33;2.03;;;;;;;19.49;65.53;98087.91;5056090;28;20212;-80
2022/07/27 00:27:53;;;;;;;3.83;2.33;;;;;;;19.35;66.62;98087.69;5055854;28;20216;-80
2022/07/27 00:30:19;;;;;;;2.40;2.00;;;;;;;19.33;66.74;98087.84;5055777;28;20230;-80
2022/07/27 00:32:47;;;;;;;4.03;2.30;;;;;;;19.35;66.97;98091.22;5056236;28;20219;-80
2022/07/27 00:35:14;;;;;;;2.63;2.20;;;;;;;19.46;66.52;98093.63;5055680;28;20280;-80
2022/07/27 00:37:41;;;;;;;2.53;2.20;;;;;;;19.49;66.39;98087.06;5055599;28;20204;-80
2022/07/27 00:40:09;;;;;;;2.13;2.03;;;;;;;19.53;66.54;98094.63;5055219;28;20326;-80
2022/07/27 00:42:35;;;;;;;3.70;2.30;;;;;;;19.59;65.73;98094.00;5053839;28;20212;-79
2022/07/27 00:45:02;;;;;;;3.33;2.47;;;;;;;19.66;65.60;98089.66;5055244;28;20707;-80
2022/07/27 00:47:29;;;;;;;2.40;2.20;;;;;;;19.59;65.96;98093.13;5055101;28;20219;-80
2022/07/27 00:49:57;;;;;;;2.70;2.50;;;;;;;19.54;66.30;98096.31;5055393;28;20299;-80
2022/07/27 00:52:25;;;;;;;2.67;2.10;;;;;;;19.49;66.45;98092.41;5055344;28;20208;-80
2022/07/27 00:54:52;;;;;;;2.40;2.20;;;;;;;19.40;67.49;98088.91;5055162;28;20218;-80
2022/07/27 00:57:19;;;;;;;2.73;2.30;;;;;;;19.39;67.84;98092.56;5055682;28;20585;-81
2022/07/27 00:59:46;;;;;;;2.70;2.20;;;;;;;19.38;68.40;98096.25;5054652;28;20298;-80
2022/07/27 01:02:12;;;;;;;2.47;1.90;;;;;;;19.34;69.53;98084.19;5055320;28;20600;-79
2022/07/27 01:04:39;;;;;;;2.33;2.13;;;;;;;19.37;69.39;98083.84;5055581;28;20244;-80
2022/07/27 01:07:07;;;;;;;2.47;2.27;;;;;;;19.42;68.46;98086.03;5055578;28;20585;-79
2022/07/27 01:12:20;;;;;;;2.50;2.30;;;;;;;19.52;67.50;98084.88;5055038;28;21419;-80
2022/07/27 01:14:47;;;;;;;2.90;2.60;;;;;;;19.56;67.36;98086.25;5055178;28;21595;-80
2022/07/27 01:17:14;;;;;;;2.30;2.10;;;;;;;19.59;67.49;98090.47;5054740;28;20230;-80
2022/07/27 01:19:40;;;;;;;2.63;2.30;;;;;;;19.62;67.32;98082.91;5053655;28;20216;-80
2022/07/27 01:22:08;;;;;;;2.53;2.17;;;;;;;19.62;67.34;98077.56;5054905;28;20573;-80
2022/07/27 01:24:35;;;;;;;3.33;2.30;;;;;;;19.62;67.55;98071.38;5054436;28;20215;-81
2022/07/27 01:27:03;;;;;;;3.73;2.63;;;;;;;19.63;66.73;98057.78;5054382;28;20218;-79
2022/07/27 01:29:31;;;;;;;4.87;2.57;;;;;;;19.64;66.32;98056.78;5054598;28;20212;-80
2022/07/27 01:31:57;;;;;;;4.27;2.70;;;;;;;19.50;66.63;98060.09;5054642;28;20222;-80
2022/07/27 01:34:24;;;;;;;2.33;2.13;;;;;;;19.30;67.56;98058.69;5053025;28;20222;-80
2022/07/27 01:36:51;;;;;;;5.87;2.73;;;;;;;19.16;68.78;98061.13;5054090;28;20208;-80
2022/07/27 01:39:19;;;;;;;2.60;2.40;;;;;;;19.09;69.42;98052.03;5054148;28;20215;-80
2022/07/27 01:41:46;;;;;;;2.50;2.30;;;;;;;19.00;69.55;98048.47;5054356;28;20235;-80
2022/07/27 01:44:13;;;;;;;2.67;2.47;;;;;;;18.99;69.65;98044.13;5054381;28;20218;-79
2022/07/27 01:46:40;;;;;;;2.93;2.53;;;;;;;18.92;69.90;98050.28;5054430;28;20298;-80
2022/07/27 01:49:06;;;;;;;2.83;2.50;;;;;;;18.70;71.06;98046.31;5054332;28;20303;-80
2022/07/27 01:51:33;;;;;;;2.90;2.60;;;;;;;18.67;71.46;98035.94;5053912;28;20258;-80
2022/07/27 01:53:59;;;;;;;3.30;3.00;;;;;;;18.56;72.17;98046.03;5054406;28;20220;-80
2022/07/27 01:56:27;;;;;;;3.73;2.40;;;;;;;18.46;72.68;98042.66;5054336;28;20219;-80
2022/07/27 01:58:55;;;;;;;2.87;2.67;;;;;;;18.41;73.09;98044.97;5054175;28;20220;-82
2022/07/27 02:01:21;;;;;;;2.63;2.30;;;;;;;18.42;73.31;98041.28;5052200;28;20704;-81
2022/07/27 02:03:48;;;;;;;6.87;3.00;;;;;;;18.42;73.20;98042.09;5053676;28;20235;-80
2022/07/27 02:06:14;;;;;;;4.40;2.80;;;;;;;18.46;73.13;98043.47;5053956;28;20212;-79
2022/07/27 02:08:41;;;;;;;3.03;2.40;;;;;;;18.48;72.92;98049.50;5053491;28;20223;-81
2022/07/27 02:13:53;;;;;;;3.57;3.27;;;;;;;18.63;72.29;98045.25;5053582;28;20223;-81
2022/07/27 02:16:20;;;;;;;5.03;2.80;;;;;;;18.45;73.12;98040.94;5053392;28;20220;-79
2022/07/27 02:18:46;;;;;;;2.80;2.53;;;;;;;18.40;73.54;98041.44;5053887;28;20208;-79
2022/07/27 02:21:13;;;;;;;3.13;2.80;;;;;;;18.31;74.08;98045.06;5053276;28;20244;-79
2022/07/27 02:23:41;;;;;;;5.07;3.60;;;;;;;18.17;74.87;98040.22;5053775;28;20212;-82
2022/07/27 02:26:08;;;;;;;3.30;2.93;;;;;;;18.18;75.11;98036.56;5053274;28;20653;-80
2022/07/27 02:28:36;;;;;;;3.10;2.80;;;;;;;18.16;74.99;98035.84;5051674;28;20211;-81
2022/07/27 02:31:04;;;;;;;2.97;2.77;;;;;;;18.10;75.30;98031.13;5053460;28;20247;-81
2022/07/27 02:33:31;;;;;;;4.60;3.17;;;;;;;18.11;75.83;98027.44;5053323;28;20565;-81
2022/07/27 02:35:57;;;;;;;3.67;2.80;;;;;;;18.00;75.98;98030.41;5052988;28;20212;-79
2022/07/27 02:38:24;;;;;;;3.13;2.93;;;;;;;17.91;76.67;98035.84;5053262;28;20212;-80
2022/07/27 02:40:51;;;;;;;2.80;2.60;;;;;;;17.82;77.14;98032.25;5052899;28;20263;-80
2022/07/27 02:43:17;;;;;;;4.17;2.90;;;;;;;17.78;77.50;98030.84;5053439;28;20599;-80
2022/07/27 02:45:44;;;;;;;3.97;3.20;;;;;;;17.75;77.61;98031.16;5053240;28;20208;-81
2022/07/27 02:48:12;;;;;;;3.70;3.17;;;;;;;17.73;77.94;98033.13;5053223;28;20212;-80
2022/07/27 02:50:38;;;;;;;3.50;3.20;;;;;;;17.71;78.18;98045.84;5053219;28;20212;-80
2022/07/27 02:53:05;;;;;;;3.30;3.00;;;;;;;17.62;78.44;98041.38;5051473;28;20211;-80
2022/07/27 02:55:31;;;;;;;3.97;3.20;;;;;;;17.55;79.37;98040.31;5053049;28;20207;-81
2022/07/27 02:57:58;;;;;;;4.03;3.10;;;;;;;17.53;79.21;98042.31;5052745;28;20696;-80
2022/07/27 03:00:24;;;;;;;4.30;3.30;;;;;;;17.53;79.95;98042.31;5053108;28;20219;-81
2022/07/27 03:02:51;;;;;;;3.70;3.23;;;;;;;17.40;80.56;98049.84;5052814;28;20262;-81
2022/07/27 03:05:19;;;;;;;4.30;3.27;;;;;;;17.43;80.77;98054.88;5052832;28;20234;-80
2022/07/27 03:07:46;;;;;;;3.57;3.27;;;;;;;17.45;80.11;98042.22;5051615;28;20223;-80
2022/07/27 03:10:12;;;;;;;3.67;3.37;;;;;;;17.42;80.50;98033.63;5053085;28;20222;-80
2022/07/27 03:12:39;;;;;;;3.30;3.00;;;;;;;17.38;80.89;98033.09;5052845;28;20215;-82
2022/07/27 03:15:06;;;;;;;3.97;3.20;;;;;;;17.36;81.08;98050.25;5052724;28;20594;-80
2022/07/27 03:17:32;;;;;;;3.83;3.30;;;;;;;17.31;81.18;98048.03;5052551;28;20307;-82
2022/07/27 03:19:59;;;;;;;4.07;3.03;;;;;;;17.28;81.61;98047.47;5051051;28;20234;-80
2022/07/27 03:22:29;;;;;;;3.73;3.10;;;;;;;17.22;81.72;98043.59;5052183;28;20690;-81
2022/07/27 03:24:56;;;;;;;3.30;3.03;;;;;;;17.17;82.29;98050.34;5052504;28;20299;-82
2022/07/27 03:27:22;;;;;;;4.73;3.27;;;;;;;17.14;82.43;98045.31;5052228;28;20222;-82
2022/07/27 03:29:50;;;;;;;4.60;3.40;;;;;;;17.14;82.56;98040.81;5052644;28;20312;-80
2022/07/27 03:32:17;;;;;;;4.17;3.40;;;;;;;17.21;82.04;98041.91;5052888;28;20212;-79
2022/07/27 03:34:43;;;;;;;3.97;3.57;;;;;;;17.31;81.48;98040.00;5052504;28;20215;-80
2022/07/27 03:37:10;;;;;;;3.83;3.53;;;;;;;17.37;81.43;98035.91;5052456;28;20576;-79
2022/07/27 03:39:38;;;;;;;4.70;4.10;;;;;;;17.53;80.27;98034.28;5052010;28;20646;-80
2022/07/27 03:42:04;;;;;;;5.20;3.73;;;;;;;17.49;80.38;98040.91;5052421;28;20333;-79
2022/07/27 03:44:32;;;;;;;3.93;3.40;;;;;;;17.52;80.48;98045.97;5057423;28;20549;-81
2022/07/27 03:46:58;;;;;;;5.13;3.50;;;;;;;17.46;80.71;98041.22;5058097;28;20307;-80
2022/07/27 03:49:25;;;;;;;5.53;3.77;;;;;;;17.37;81.35;98055.47;5059105;28;20216;-80
2022/07/27 03:51:52;;;;;;;3.60;3.30;;;;;;;17.34;81.88;98052.22;5058759;28;20208;-80
2022/07/27 03:54:18;;;;;;;3.97;3.57;;;;;;;17.26;82.21;98052.97;5059030;28;20578;-81
2022/07/27 03:56:46;;;;;;;4.30;3.90;;;;;;;17.32;81.99;98049.69;5058578;28;20212;-80
2022/07/27 03:59:13;;;;;;;4.57;3.57;;;;;;;17.34;81.89;98044.22;5059021;28;20303;-80
2022/07/27 04:01:39;;;;;;;4.23;3.80;;;;;;;17.38;81.72;98057.16;5058857;28;20254;-80
2022/07/27 04:04:06;;;;;;;4.20;3.80;;;;;;;17.36;82.16;98048.41;5058474;28;20691;-80
2022/07/27 04:06:32;;;;;;;4.03;3.60;;;;;;;17.38;81.93;98057.16;5058532;28;20223;-83
2022/07/27 04:08:59;;;;;;;4.87;3.67;;;;;;;17.32;82.18;98055.03;5058862;28;20266;-81
2022/07/27 04:11:26;;;;;;;4.30;3.90;;;;;;;17.34;82.26;98058.44;5057327;28;20220;-82
2022/07/27 04:13:53;;;;;;;3.67;3.37;;;;;;;17.31;82.39;98064.06;5058999;28;20230;-82
2022/07/27 04:16:20;;;;;;;4.10;3.70;;;;;;;17.30;82.48;98065.03;5057332;28;20573;-81
2022/07/27 04:18:47;;;;;;;4.20;3.90;;;;;;;17.34;82.57;98069.13;5057987;28;20266;-83
2022/07/27 04:21:14;;;;;;;4.10;3.70;;;;;;;17.39;82.52;98069.53;5057650;28;20232;-82
2022/07/27 04:23:41;;;;;;;4.67;3.77;;;;;;;17.43;82.35;98068.22;5057734;28;20232;-81
2022/07/27 04:26:08;;;;;;;3.90;3.60;;;;;;;17.52;82.12;98066.50;5057689;28;20216;-81
2022/07/27 04:28:34;;;;;;;6.37;3.90;;;;;;;17.65;81.47;98069.63;5057980;28;20658;-82
2022/07/27 04:31:02;;;;;;;4.13;3.73;;;;;;;17.76;80.83;98067.59;5057454;28;20216;-81
2022/07/27 04:33:29;;;;;;;4.43;4.07;;;;;;;17.83;80.72;98074.03;5057456;28;20212;-81
2022/07/27 04:35:55;;;;;;;4.77;4.07;;;;;;;17.94;80.06;98068.44;5057580;28;20219;-82
2022/07/27 04:38:22;;;;;;;4.20;3.80;;;;;;;18.05;79.35;98070.88;5055769;28;20214;-81
2022/07/27 04:40:48;;;;;;;4.77;4.37;;;;;;;18.13;79.52;98072.78;5057703;28;20431;-82
2022/07/27 04:43:15;;;;;;;4.73;4.00;;;;;;;18.16;78.50;98073.31;5057016;28;20236;-81
2022/07/27 04:45:41;;;;;;;5.63;4.13;;;;;;;18.20;78.14;98074.69;5057506;28;20307;-80
2022/07/27 04:48:10;;;;;;;5.47;4.30;;;;;;;18.20;78.07;98079.19;5057888;28;20379;-81
2022/07/27 04:50:40;;;;;;;5.37;3.77;;;;;;;18.24;78.16;98080.56;5057609;28;20223;-81
2022/07/27 04:53:07;;;;;;;5.33;4.20;;;;;;;18.36;77.62;98080.19;5057324;28;20219;-81
2022/07/27 04:55:34;;;;;;;4.20;3.80;;;;;;;18.42;76.97;98084.09;5054062;28;20220;-81
2022/07/27 04:58:00;;;;;;;4.20;3.80;;;;;;;18.45;77.14;98083.78;5040938;28;20215;-81
2022/07/27 05:00:27;;;;;;;4.63;3.87;;;;;;;18.46;76.99;98088.97;5054275;28;20461;-81
2022/07/27 05:02:53;;;;;;;5.40;4.10;;;;;;;18.47;77.23;98098.69;5053753;28;20404;-81
2022/07/27 05:05:22;;;;;;;4.27;3.97;;;;;;;18.44;77.11;98093.66;5052210;28;20212;-81
2022/07/27 05:07:48;;;;;;;5.30;4.13;;;;;;;18.48;76.97;98097.69;5053899;28;20226;-80
2022/07/27 05:10:15;;;;;;;4.83;3.67;;;;;;;18.55;76.36;98093.41;5053511;28;20674;-81
2022/07/27 05:12:41;;;;;;;4.37;3.97;;;;;;;18.58;76.39;98095.75;5053407;28;20226;-80
2022/07/27 05:15:09;;;;;;;6.07;4.30;;;;;;;18.54;76.46;98105.09;5053486;28;20216;-80
2022/07/27 05:17:35;;;;;;;4.30;4.00;;;;;;;18.49;76.95;98104.75;5053587;28;20258;-81
2022/07/27 05:20:02;;;;;;;4.77;4.17;;;;;;;18.55;76.79;98100.59;5053867;28;20579;-80
2022/07/27 05:22:30;;;;;;;4.20;3.83;;;;;;;18.48;76.92;98103.03;5053643;28;20254;-79
2022/07/27 05:24:57;;;;;;;6.20;4.27;;;;;;;18.55;77.30;98109.47;5053362;28;20586;-80
2022/07/27 05:27:23;;;;;;;5.57;4.10;;;;;;;18.59;77.24;98108.13;5053107;28;20684;-81
2022/07/27 05:29:50;;;;;;;4.83;4.10;;;;;;;18.77;76.14;98111.63;5051600;28;20469;-81
2022/07/27 05:32:16;;;;;;;5.33;4.00;;;;;;;18.76;75.83;98117.97;5053368;28;20216;-80
2022/07/27 05:34:44;;;;;;;6.50;4.13;;;;;;;18.71;76.15;98124.81;5053430;28;20295;-81
2022/07/27 05:37:11;;;;;;;4.17;3.77;;;;;;;18.77;76.52;98135.72;5053175;28;20215;-81
2022/07/27 05:39:41;;;;;;;4.20;3.90;;;;;;;18.84;75.89;98134.09;5053032;28;20212;-80
2022/07/27 05:42:07;;;;;;;4.27;3.87;;;;;;;18.91;75.64;98127.09;5052970;28;20290;-81
2022/07/27 05:44:34;;;;;;;3.90;3.50;;;;;;;18.96;75.17;98118.63;5052940;28;20223;-81
2022/07/27 05:47:01;;;;;;;3.73;3.43;;;;;;;19.01;75.15;98127.03;5053000;28;20300;-81
2022/07/27 05:49:28;;;;;;;4.70;3.90;;;;;;;19.11;74.88;98122.38;5053036;28;20307;-82
2022/07/27 05:51:54;;;;;;;5.53;4.17;;;;;;;19.19;74.37;98131.28;5052642;28;20216;-81
2022/07/27 05:54:21;;;;;;;4.40;4.00;;;;;;;19.31;74.20;98138.09;5052887;28;20662;-81
2022/07/27 05:56:49;;;;;;;4.77;3.97;;;;;;;19.40;73.82;98134.47;5051172;28;20218;-81
2022/07/27 05:59:15;;;;;;;4.77;3.70;;;;;;;19.42;73.90;98140.50;5052747;28;20303;-82
2022/07/27 06:01:42;;;;;;;5.93;4.13;;;;;;;19.53;73.87;98144.72;5052566;28;20596;-81
2022/07/27 06:04:08;;;;;;;4.63;4.10;;;;;;;19.45;74.27;98150.88;5052429;28;20212;-75
2022/07/27 06:09:19;;;;;;;4.13;3.80;;;;;;;19.59;73.70;98147.63;5052722;28;20219;-75
2022/07/27 06:11:45;;;;;;;4.20;3.63;;;;;;;19.81;72.41;98146.19;5052367;28;20569;-75
2022/07/27 06:14:13;;;;;;;4.30;3.90;;;;;;;19.84;72.23;98149.38;5052653;28;20216;-77
2022/07/27 06:16:40;;;;;;;5.00;3.53;;;;;;;19.83;72.01;98150.38;5049849;28;20216;-77
2022/07/27 06:19:06;;;;;;;4.10;3.80;;;;;;;19.83;72.29;98155.75;5050888;28;20226;-73
2022/07/27 06:21:33;;;;;;;5.83;3.93;;;;;;;19.93;72.22;98153.75;5051590;28;20228;-73
2022/07/27 06:23:59;;;;;;;5.00;3.90;;;;;;;19.95;71.87;98157.13;5049958;28;20325;-74
2022/07/27 06:26:26;;;;;;;4.63;3.97;;;;;;;20.02;72.28;98152.78;5052475;28;20212;-73
2022/07/27 06:28:57;;;;;;;5.40;3.77;;;;;;;20.06;71.91;98151.47;5052012;28;20218;-74
2022/07/27 06:31:25;;;;;;;4.00;3.60;;;;;;;20.13;70.58;98149.81;5052103;28;20735;-74
2022/07/27 06:33:52;;;;;;;4.00;3.60;;;;;;;20.04;71.10;98150.75;5052235;28;20208;-72
2022/07/27 06:36:19;;;;;;;4.20;3.80;;;;;;;20.10;71.13;98150.13;5051902;28;20303;-74
2022/07/27 06:38:46;;;;;;;4.97;4.43;;;;;;;20.10;71.04;98152.81;5051807;28;20208;-74
2022/07/27 06:41:12;;;;;;;4.60;4.20;;;;;;;20.05;70.95;98155.13;5051968;28;20219;-72
2022/07/27 06:43:39;;;;;;;4.33;3.80;;;;;;;20.05;71.13;98152.44;5051616;28;20705;-74
2022/07/27 06:46:06;;;;;;;4.63;3.90;;;;;;;20.06;70.86;98156.81;5052103;28;20212;-74
2022/07/27 06:48:34;;;;;;;4.30;3.87;;;;;;;20.13;71.00;98160.56;5051988;28;20302;-74
2022/07/27 06:51:00;;;;;;;3.73;3.30;;;;;;;20.29;70.82;98152.50;5050485;28;20224;-74
2022/07/27 06:53:27;;;;;;;4.90;3.53;;;;;;;20.49;69.71;98153.03;5051774;28;20342;-74
2022/07/27 06:55:53;;;;;;;4.03;3.70;;;;;;;20.44;68.73;98153.56;5051812;28;20581;-74
2022/07/27 06:58:20;;;;;;;3.70;3.40;;;;;;;20.42;69.83;98152.84;5051666;28;20226;-74
2022/07/27 07:00:46;;;;;;;4.70;3.90;;;;;;;20.44;69.63;98150.88;5051566;28;20238;-74
2022/07/27 07:03:13;;;;;;;4.03;3.73;;;;;;;20.53;69.79;98157.06;5051282;28;20689;-73
2022/07/27 07:05:47;;;;;;;4.43;3.87;;;;;;;20.65;68.58;98159.25;5051512;28;20208;-74
2022/07/27 07:08:14;;;;;;;3.90;3.60;;;;;;;20.81;68.09;98150.34;5051229;28;20705;-74
2022/07/27 07:10:42;;;;;;;3.90;3.47;;;;;;;21.00;67.33;98158.06;5051301;28;20307;-74
2022/07/27 07:13:09;;;;;;;4.50;3.83;;;;;;;21.11;66.57;98165.78;5051426;28;20219;-75
2022/07/27 07:15:37;;;;;;;4.07;3.33;;;;;;;21.14;66.80;98163.59;5051244;28;20218;-73
2022/07/27 07:18:04;;;;;;;3.97;3.63;;;;;;;21.21;65.77;98158.41;5048711;28;20307;-78
2022/07/27 07:20:31;;;;;;;4.20;3.80;;;;;;;21.13;65.46;98169.13;5051208;28;20248;-76
2022/07/27 07:23:00;;;;;;;3.80;3.40;;;;;;;21.17;65.71;98159.75;5051230;28;20614;-75
2022/07/27 07:25:27;;;;;;;3.90;3.60;;;;;;;21.32;65.69;98153.47;5050948;28;20673;-77
2022/07/27 07:27:55;;;;;;;3.93;3.50;;;;;;;21.44;65.28;98156.63;5050990;28;20670;-76
2022/07/27 07:30:22;;;;;;;3.73;3.40;;;;;;;21.55;64.55;98157.13;5050984;28;20744;-72
2022/07/27 07:32:48;;;;;;;4.03;3.27;;;;;;;21.79;63.77;98151.66;5051058;28;20219;-76
2022/07/27 07:35:16;;;;;;;4.20;3.80;;;;;;;21.88;62.71;98155.97;5043725;28;20215;-72
2022/07/27 07:37:42;;;;;;;4.73;3.60;;;;;;;21.55;63.64;98165.19;5037877;28;20212;-73
2022/07/27 07:40:11;;;;;;;3.93;3.43;;;;;;;21.53;64.06;98156.44;5050028;28;20216;-74
2022/07/27 07:42:48;;;;;;;4.20;3.80;;;;;;;21.57;63.96;98152.38;5050301;28;20329;-74
2022/07/27 07:45:15;;;;;;;4.37;3.57;;;;;;;21.61;64.05;98147.50;5031530;28;20231;-76
2022/07/27 07:47:42;;;;;;;5.63;3.93;;;;;;;21.91;63.13;98150.25;5047013;28;20218;-76
2022/07/27 07:50:09;;;;;;;4.97;3.60;;;;;;;22.14;63.58;98158.38;5053156;28;20223;-76
2022/07/27 07:52:36;;;;;;;5.57;4.23;;;;;;;22.02;61.89;98157.94;5057551;28;20222;-75
2022/07/27 07:55:03;;;;;;;4.13;3.40;;;;;;;21.87;62.47;98148.94;5055507;28;20208;-76
2022/07/27 07:57:31;;;;;;;4.17;3.77;;;;;;;22.01;62.86;98150.03;5055675;28;20216;-76
2022/07/27 07:59:57;;;;;;;4.10;3.37;;;;;;;22.27;62.32;98145.16;5057574;28;20246;-77
2022/07/27 08:02:24;;;;;;;5.40;3.47;;;;;;;22.46;61.02;98148.25;5058328;28;20211;-77
2022/07/27 08:04:50;;;;;;;4.73;3.77;;;;;;;22.39;60.45;98155.34;5055298;28;20669;-77
2022/07/27 08:07:17;;;;;;;4.33;3.93;;;;;;;22.38;61.37;98145.56;5055001;28;20212;-76
2022/07/27 08:09:44;;;;;;;3.90;3.60;;;;;;;22.34;61.39;98138.88;5057470;28;20222;-76
2022/07/27 08:12:10;;;;;;;5.07;3.90;;;;;;;22.41;61.23;98147.94;5057399;28;20215;-75
2022/07/27 08:14:38;;;;;;;6.07;4.27;;;;;;;22.39;61.83;98155.34;5056576;28;20220;-80
2022/07/27 08:17:05;;;;;;;4.40;3.97;;;;;;;22.45;62.06;98160.06;5056555;28;20303;-81
2022/07/27 08:19:31;;;;;;;4.10;3.70;;;;;;;22.55;60.17;98165.19;5058395;28;20212;-81
2022/07/27 08:21:58;;;;;;;3.50;3.10;;;;;;;22.70;59.03;98160.69;5060281;28;20269;-79
2022/07/27 08:24:24;;;;;;;4.57;3.40;;;;;;;22.87;58.83;98159.53;5056382;28;20242;-79
2022/07/27 08:26:51;;;;;;;4.30;3.90;;;;;;;22.99;58.97;98161.59;5056198;28;20698;-80
2022/07/27 08:29:17;;;;;;;4.50;3.60;;;;;;;23.08;59.11;98163.22;5058510;28;20665;-82
2022/07/27 08:31:45;;;;;;;3.80;3.40;;;;;;;23.15;58.22;98169.53;5064272;28;20216;-81
2022/07/27 08:34:11;;;;;;;3.60;3.30;;;;;;;23.31;58.03;98157.78;5049417;28;20315;-73
2022/07/27 08:36:38;;;;;;;4.40;3.50;;;;;;;23.37;57.53;98162.44;5059840;28;20227;-78
2022/07/27 08:39:07;;;;;;;3.53;3.10;;;;;;;23.50;56.91;98154.53;5055412;28;20208;-78
2022/07/27 08:41:37;;;;;;;3.97;3.60;;;;;;;23.57;56.16;98164.41;5063321;28;20219;-79
2022/07/27 08:44:05;;;;;;;4.30;3.50;;;;;;;23.19;56.69;98154.72;5048411;28;20240;-78
2022/07/27 08:46:31;;;;;;;3.80;3.40;;;;;;;23.11;56.91;98160.13;5060033;28;20233;-78
2022/07/27 08:49:01;;;;;;;4.07;3.40;;;;;;;23.22;57.25;98153.50;5061501;28;20211;-79
2022/07/27 08:51:29;;;;;;;4.00;3.57;;;;;;;23.42;57.46;98162.72;5063747;28;20306;-77
2022/07/27 08:53:55;;;;;;;4.97;3.87;;;;;;;23.50;56.89;98158.09;5060076;28;20212;-78
2022/07/27 08:56:22;;;;;;;3.27;3.03;;;;;;;23.79;56.61;98152.69;5059894;28;20212;-77
2022/07/27 08:58:48;;;;;;;4.23;3.83;;;;;;;24.11;55.54;98163.06;5061277;28;20574;-80
2022/07/27 09:01:15;;;;;;;3.50;3.20;;;;;;;24.42;54.15;98171.75;5059910;28;20212;-80
2022/07/27 09:03:41;;;;;;;3.73;3.43;;;;;;;24.57;54.03;98169.03;5059459;28;20242;-77
2022/07/27 09:06:09;;;;;;;4.47;3.13;;;;;;;24.68;52.78;98169.31;5058044;28;20325;-79
2022/07/27 09:08:37;;;;;;;4.63;3.70;;;;;;;24.45;52.98;98165.13;5060922;28;20212;-78
2022/07/27 09:11:13;;;;;;;4.97;3.73;;;;;;;24.16;53.48;98173.31;5063814;28;20216;-81
2022/07/27 09:13:41;;;;;;;4.27;3.37;;;;;;;24.03;54.48;98165.03;5050345;28;20269;-79
2022/07/27 09:16:09;;;;;;;4.63;3.23;;;;;;;23.79;55.44;98158.06;5068413;28;20300;-78
2022/07/27 09:18:37;;;;;;;4.10;3.70;;;;;;;23.41;56.08;98159.19;5057123;28;20212;-77
2022/07/27 09:21:13;;;;;;;3.50;3.30;;;;;;;23.32;57.21;98154.91;5061636;28;20696;-79
2022/07/27 09:23:41;;;;;;;5.63;3.80;;;;;;;23.10;58.98;98160.34;5059028;28;21148;-77
2022/07/27 09:26:13;;;;;;;4.97;3.60;;;;;;;22.72;60.36;98161.34;5059234;28;20224;-79
2022/07/27 09:28:40;;;;;;;5.57;3.43;;;;;;;22.53;61.66;98157.28;5053153;28;20304;-79
2022/07/27 09:31:08;;;;;;;3.90;3.57;;;;;;;22.28;63.12;98166.53;5060144;28;20226;-79
2022/07/27 09:33:42;;;;;;;4.23;3.60;;;;;;;22.15;62.94;98157.34;5057362;28;20208;-78
2022/07/27 09:36:11;;;;;;;3.80;3.50;;;;;;;22.19;63.33;98164.88;5059977;28;20761;-78
2022/07/27 09:38:38;;;;;;;4.17;3.50;;;;;;;22.34;61.89;98152.34;5062335;28;20212;-78
2022/07/27 09:41:06;;;;;;;4.10;3.77;;;;;;;22.47;60.77;98158.00;5047855;28;20212;-80
2022/07/27 09:43:46;;;;;;;4.80;4.30;;;;;;;22.59;63.21;98158.41;5058891;28;20580;-78
2022/07/27 09:46:12;;;;;;;4.70;4.30;;;;;;;22.78;63.67;98161.47;5061464;28;20685;-78
2022/07/27 09:48:39;;;;;;;4.80;3.73;;;;;;;23.11;61.93;98168.22;5060974;28;20211;-78
2022/07/27 09:51:08;;;;;;;5.07;4.20;;;;;;;23.19;60.75;98170.91;5058844;28;20218;-78
2022/07/27 09:53:36;;;;;;;4.83;4.00;;;;;;;23.09;60.21;98170.28;5058928;28;20220;-78
2022/07/27 09:56:05;;;;;;;4.40;4.00;;;;;;;22.98;59.56;98162.63;5061724;28;20298;-79
2022/07/27 09:58:46;;;;;;;4.93;3.70;;;;;;;23.02;58.69;98168.50;5058600;28;20558;-81
2022/07/27 10:01:16;;;;;;;4.37;3.97;;;;;;;23.02;60.07;98169.34;5058992;28;20216;-78
2022/07/27 10:03:43;;;;;;;3.70;3.50;;;;;;;23.09;57.71;98167.59;5059855;28;20320;-77
2022/07/27 10:06:10;;;;;;;4.80;4.37;;;;;;;23.24;59.55;98160.41;5062076;28;20215;-79
2022/07/27 10:08:40;;;;;;;4.90;4.07;;;;;;;23.54;56.78;98163.94;5047725;28;20665;-78
2022/07/27 10:11:07;;;;;;;3.93;3.63;;;;;;;23.61;55.95;98165.72;5058057;28;20306;-77
2022/07/27 10:13:34;;;;;;;3.50;3.20;;;;;;;23.81;56.07;98164.13;5059848;28;20338;-77
2022/07/27 10:16:03;;;;;;;3.70;3.40;;;;;;;23.94;55.93;98156.22;5059823;28;20580;-79
2022/07/27 10:18:41;;;;;;;4.40;4.00;;;;;;;24.26;56.14;98155.75;5048091;28;20212;-78
2022/07/27 10:21:10;;;;;;;3.97;3.50;;;;;;;24.71;52.48;98158.16;5058088;28;20231;-78
2022/07/27 10:23:37;;;;;;;4.47;3.30;;;;;;;24.71;52.49;98155.44;5061575;28;20241;-77
2022/07/27 10:26:20;;;;;;;5.30;3.43;;;;;;;24.59;52.48;98146.19;5058120;28;20219;-77
2022/07/27 10:28:55;;;;;;;5.67;3.73;;;;;;;24.31;52.44;98150.63;5057916;28;20219;-79
2022/07/27 10:31:23;;;;;;;5.07;3.77;;;;;;;24.16;55.03;98157.09;5059872;28;20538;-77
2022/07/27 10:33:52;;;;;;;4.00;3.60;;;;;;;24.00;55.53;98155.47;5060707;28;20298;-79
2022/07/27 10:36:46;;;;;;;5.33;3.50;;;;;;;24.15;55.44;98158.94;5057730;28;20270;-77
2022/07/27 10:39:26;;;;;;;5.87;3.40;;;;;;;24.15;55.48;98150.84;5056678;28;20213;-77
2022/07/27 10:42:21;;;;;;;4.77;3.57;;;;;;;24.50;55.41;98154.56;5058689;28;20211;-78
2022/07/27 10:45:06;;;;;;;3.57;3.27;;;;;;;24.71;52.96;98141.94;5057324;28;20236;-77
2022/07/27 10:47:36;;;;;;;5.73;3.67;;;;;;;24.91;51.63;98145.63;5054157;28;20302;-78
2022/07/27 10:50:28;;;;;;;3.57;3.03;;;;;;;24.70;48.84;98159.16;5057580;28;20216;-79
2022/07/27 10:52:56;;;;;;;2.93;2.60;;;;;;;24.44;47.31;98150.75;5056631;28;20212;-77
2022/07/27 10:55:45;;;;;;;3.17;2.87;;;;;;;24.21;47.86;98155.47;5062593;28;20237;-77
2022/07/27 10:58:44;;;;;;;3.30;2.60;;;;;;;23.98;49.18;98151.28;5058118;28;20655;-80
2022/07/27 11:01:12;;;;;;;3.40;3.10;;;;;;;24.12;51.20;98153.94;5051940;28;20665;-73
2022/07/27 11:03:39;;;;;;;3.77;3.20;;;;;;;24.10;50.78;98137.09;5057151;28;20740;-78
2022/07/27 11:06:08;;;;;;;3.20;2.90;;;;;;;24.38;49.95;98146.13;5057051;28;20216;-79
2022/07/27 11:08:36;;;;;;;4.07;2.67;;;;;;;24.70;47.15;98142.13;5058229;28;20657;-74
2022/07/27 11:11:04;;;;;;;3.10;2.77;;;;;;;24.91;46.82;98140.22;5060874;28;20563;-78
2022/07/27 11:13:31;;;;;;;3.23;2.80;;;;;;;25.21;47.06;98144.41;5046754;28;20307;-81
2022/07/27 11:16:02;;;;;;;2.60;2.40;;;;;;;25.46;46.04;98142.09;5057003;28;20242;-74
2022/07/27 11:18:31;;;;;;;2.50;2.30;;;;;;;25.42;45.19;98130.84;5057793;28;20298;-77
2022/07/27 11:21:13;;;;;;;2.80;2.60;;;;;;;25.38;46.79;98136.84;5059818;28;20239;-78
2022/07/27 11:23:39;;;;;;;2.83;2.60;;;;;;;25.44;46.17;98131.50;5056754;28;20231;-79
2022/07/27 11:26:06;;;;;;;2.90;2.53;;;;;;;25.63;44.67;98125.34;5057058;28;20208;-78
2022/07/27 11:28:34;;;;;;;2.50;2.30;;;;;;;25.81;45.26;98125.66;5060448;28;20219;-79
2022/07/27 11:31:03;;;;;;;3.33;2.38;;;;;;;26.03;44.41;98127.22;5058712;28;20211;-79
2022/07/27 11:33:29;;;;;;;3.20;2.00;;;;;;;26.06;43.99;98126.81;5057241;28;20218;-77
2022/07/27 11:35:58;;;;;;;3.05;2.25;;;;;;;25.91;45.15;98128.84;5056894;28;20212;-78
2022/07/27 11:38:25;;;;;;;2.77;2.30;;;;;;;25.51;45.55;98123.41;5049758;28;20216;-71
2022/07/27 11:40:54;;;;;;;2.33;2.07;;;;;;;25.29;46.02;98128.06;5058193;28;20212;-70
2022/07/27 11:43:38;;;;;;;2.80;2.60;;;;;;;24.96;46.29;98124.25;5056425;28;20673;-71
2022/07/27 11:46:14;;;;;;;3.70;2.30;;;;;;;24.67;46.75;98119.00;5057394;28;20216;-70